Time;durP1;ratioP1;P1;durP2;ratioP2;P2;SDS_P1;SDS_P2;PMS_P1;PMS_P2;Temp;Humidity;BMP_temperature;BMP_pressure;BME280_temperature;BME280_humidity;BME280_pressure;Samples;Min_cycle;Max_cycle;Signal;HPM_P1;HPM_P2
2023/08/08 00:00:15;;;;;;;;;;;16.30;99.90;;;;;;7324641;19;10261;-82
2023/08/08 00:02:44;;;;;;;;;;;16.30;99.90;;;;;;7324782;19;9205;-81
2023/08/08 00:05:15;;;;;;;;;;;16.30;99.90;;;;;;7324377;19;9213;-81
2023/08/08 00:07:44;;;;;;;;;;;16.40;99.90;;;;;;7323862;19;9244;-81
2023/08/08 00:10:13;;;;;;;;;;;16.30;99.90;;;;;;7323197;19;9203;-82
2023/08/08 00:12:39;;;;;;;;;;;16.40;99.90;;;;;;7323946;19;9226;-82
2023/08/08 00:15:09;;;;;;;;;;;16.40;99.90;;;;;;7323962;19;9165;-82
2023/08/08 00:17:38;;;;;;;;;;;16.30;99.90;;;;;;7324063;19;9183;-82
2023/08/08 00:20:09;;;;;;;;;;;16.40;99.90;;;;;;7324103;19;9181;-82
2023/08/08 00:22:41;;;;;;;;;;;16.40;99.90;;;;;;7323726;19;9567;-82
2023/08/08 00:25:11;;;;;;;;;;;16.50;99.90;;;;;;7323741;19;10226;-82
2023/08/08 00:27:43;;;;;;;;;;;16.40;99.90;;;;;;7323445;19;9507;-82
2023/08/08 00:30:14;;;;;;;;;;;16.40;99.90;;;;;;7322509;19;9172;-82
2023/08/08 00:32:43;;;;;;;;;;;16.50;99.90;;;;;;7323436;19;9258;-82
2023/08/08 00:35:12;;;;;;;;;;;16.50;99.90;;;;;;7323335;19;9545;-82
2023/08/08 00:37:44;;;;;;;;;;;16.50;99.90;;;;;;7323259;19;9208;-82
2023/08/08 00:40:13;;;;;;;;;;;16.50;99.90;;;;;;7322224;19;9193;-82
2023/08/08 00:42:42;;;;;;;;;;;16.40;99.90;;;;;;7322933;19;9177;-82
2023/08/08 00:45:11;;;;;;;;;;;16.40;99.90;;;;;;7323514;19;9223;-82
2023/08/08 00:47:41;;;;;;;;;;;16.30;99.90;;;;;;7324146;19;8944;-82
2023/08/08 00:50:12;;;;;;;;;;;16.30;99.90;;;;;;7322292;19;9284;-82
2023/08/08 00:52:45;;;;;;;;;;;16.30;99.90;;;;;;7322739;19;9190;-82
2023/08/08 00:55:15;;;;;;;;;;;16.30;99.90;;;;;;7327366;19;9189;-82
2023/08/08 00:57:44;;;;;;;;;;;16.20;99.90;;;;;;7322851;19;9454;-82
2023/08/08 01:00:14;;;;;;;;;;;16.10;99.90;;;;;;7322554;19;9351;-83
2023/08/08 01:02:43;;;;;;;;;;;16.10;99.90;;;;;;7320881;19;10614;-82
2023/08/08 01:05:13;;;;;;;;;;;16.00;99.90;;;;;;7322524;19;9210;-82
2023/08/08 01:07:51;;;;;;;;;;;16.00;99.90;;;;;;7322561;19;9209;-82
2023/08/08 01:10:27;;;;;;;;;;;15.90;99.90;;;;;;7321498;19;9295;-82
2023/08/08 01:13:01;;;;;;;;;;;16.10;99.90;;;;;;7322064;19;10157;-82
2023/08/08 01:15:35;;;;;;;;;;;16.10;99.90;;;;;;7322231;19;9178;-81
2023/08/08 01:18:06;;;;;;;;;;;16.10;99.90;;;;;;7326532;19;9470;-82
2023/08/08 01:20:36;;;;;;;;;;;16.20;99.90;;;;;;7329526;19;9431;-82
2023/08/08 01:23:15;;;;;;;;;;;16.10;99.90;;;;;;7329606;19;10148;-81
2023/08/08 01:25:48;;;;;;;;;;;16.10;99.90;;;;;;7329291;19;9509;-82
2023/08/08 01:28:18;;;;;;;;;;;16.10;99.90;;;;;;7329379;19;9193;-82
2023/08/08 01:30:47;;;;;;;;;;;16.00;99.90;;;;;;7326954;19;9205;-81
2023/08/08 01:33:16;;;;;;;;;;;15.90;99.90;;;;;;7329038;19;9300;-82
2023/08/08 01:35:50;;;;;;;;;;;15.90;99.90;;;;;;7328804;19;9517;-81
2023/08/08 01:38:26;;;;;;;;;;;15.90;99.90;;;;;;7328981;19;9196;-82
2023/08/08 01:41:00;;;;;;;;;;;16.00;99.90;;;;;;7326123;19;9585;-82
2023/08/08 01:43:30;;;;;;;;;;;16.00;99.90;;;;;;7328810;19;9493;-82
2023/08/08 01:46:00;;;;;;;;;;;16.00;99.90;;;;;;7328819;19;9173;-82
2023/08/08 01:48:30;;;;;;;;;;;15.90;99.90;;;;;;7328359;19;9513;-82
2023/08/08 01:50:59;;;;;;;;;;;16.00;99.90;;;;;;7326285;19;9997;-82
2023/08/08 01:53:28;;;;;;;;;;;15.90;99.90;;;;;;7329414;19;9193;-82
2023/08/08 01:56:00;;;;;;;;;;;15.90;99.90;;;;;;7328287;19;10643;-82
2023/08/08 01:58:28;;;;;;;;;;;15.90;99.90;;;;;;7328303;19;9279;-82
2023/08/08 02:00:55;;;;;;;;;;;16.10;99.90;;;;;;7328223;19;9135;-81
2023/08/08 02:03:24;;;;;;;;;;;16.10;99.90;;;;;;7328122;19;9164;-81
2023/08/08 02:05:53;;;;;;;;;;;16.20;99.90;;;;;;7328167;19;9482;-82
2023/08/08 02:08:21;;;;;;;;;;;16.20;99.90;;;;;;7328056;19;9213;-82
2023/08/08 02:10:50;;;;;;;;;;;16.10;99.90;;;;;;7325992;19;9263;-82
2023/08/08 02:13:22;;;;;;;;;;;16.10;99.90;;;;;;7327740;19;9225;-82
2023/08/08 02:15:52;;;;;;;;;;;16.00;99.90;;;;;;7327915;19;9180;-82
2023/08/08 02:18:21;;;;;;;;;;;15.90;99.90;;;;;;7327927;19;9121;-81
2023/08/08 02:20:50;;;;;;;;;;;15.90;99.90;;;;;;7327687;19;10516;-82
2023/08/08 02:23:20;;;;;;;;;;;16.00;99.90;;;;;;7327447;19;11370;-82
2023/08/08 02:25:49;;;;;;;;;;;16.10;99.90;;;;;;7327331;19;9212;-82
2023/08/08 02:28:18;;;;;;;;;;;16.10;99.90;;;;;;7327565;19;10149;-82
2023/08/08 02:30:50;;;;;;;;;;;16.20;99.90;;;;;;7324453;19;9157;-82
2023/08/08 02:33:19;;;;;;;;;;;16.20;99.90;;;;;;7327262;19;9113;-82
2023/08/08 02:35:48;;;;;;;;;;;16.30;99.90;;;;;;7327021;19;9148;-82
2023/08/08 02:38:17;;;;;;;;;;;16.40;99.90;;;;;;7327347;19;9449;-82
2023/08/08 02:40:45;;;;;;;;;;;16.30;99.90;;;;;;7324896;19;10562;-82
2023/08/08 02:43:14;;;;;;;;;;;16.40;99.90;;;;;;7326698;19;9189;-82
2023/08/08 02:45:43;;;;;;;;;;;16.50;99.90;;;;;;7326878;19;11150;-82
2023/08/08 02:48:15;;;;;;;;;;;16.50;99.90;;;;;;7326813;19;9230;-82
2023/08/08 02:50:44;;;;;;;;;;;16.40;99.90;;;;;;7325267;19;9478;-82
2023/08/08 02:53:13;;;;;;;;;;;16.40;99.90;;;;;;7327046;19;9177;-82
2023/08/08 02:55:42;;;;;;;;;;;16.20;99.90;;;;;;7326418;19;9185;-82
2023/08/08 02:58:11;;;;;;;;;;;16.20;99.90;;;;;;7326495;19;9558;-81
2023/08/08 03:00:40;;;;;;;;;;;16.00;99.90;;;;;;7326820;19;9206;-82
2023/08/08 03:03:09;;;;;;;;;;;16.10;99.90;;;;;;7329480;19;9213;-82
2023/08/08 03:05:40;;;;;;;;;;;16.10;99.90;;;;;;7327518;19;9283;-82
2023/08/08 03:08:09;;;;;;;;;;;16.20;99.90;;;;;;7326283;19;9219;-82
2023/08/08 03:10:38;;;;;;;;;;;16.10;99.90;;;;;;7324789;19;9175;-82
2023/08/08 03:13:07;;;;;;;;;;;16.00;99.90;;;;;;7325621;19;9277;-82
2023/08/08 03:15:36;;;;;;;;;;;16.00;99.90;;;;;;7325846;19;11247;-83
2023/08/08 03:18:05;;;;;;;;;;;16.00;99.90;;;;;;7325569;19;9173;-82
2023/08/08 03:20:34;;;;;;;;;;;16.10;99.90;;;;;;7325568;19;9181;-82
2023/08/08 03:23:06;;;;;;;;;;;16.10;99.90;;;;;;7325369;19;9242;-82
2023/08/08 03:25:36;;;;;;;;;;;16.10;99.90;;;;;;7325503;19;9001;-82
2023/08/08 03:28:05;;;;;;;;;;;15.90;99.90;;;;;;7325423;19;10154;-82
2023/08/08 03:30:34;;;;;;;;;;;15.90;99.90;;;;;;7324102;19;9483;-82
2023/08/08 03:33:03;;;;;;;;;;;15.90;99.90;;;;;;7324916;19;9193;-82
2023/08/08 03:35:32;;;;;;;;;;;16.10;99.90;;;;;;7325093;19;9201;-82
2023/08/08 03:38:02;;;;;;;;;;;16.00;99.90;;;;;;7325024;19;9190;-82
2023/08/08 03:40:34;;;;;;;;;;;16.00;99.90;;;;;;7321279;19;9200;-82
2023/08/08 03:43:03;;;;;;;;;;;16.10;99.90;;;;;;7324239;19;9470;-82
2023/08/08 03:45:32;;;;;;;;;;;16.00;99.90;;;;;;7324978;19;9456;-82
2023/08/08 03:48:01;;;;;;;;;;;16.00;99.90;;;;;;7324696;19;9462;-82
2023/08/08 03:50:30;;;;;;;;;;;16.00;99.90;;;;;;7323692;19;9208;-82
2023/08/08 03:52:59;;;;;;;;;;;16.10;99.90;;;;;;7324831;19;9180;-82
2023/08/08 03:55:28;;;;;;;;;;;16.00;99.90;;;;;;7324289;19;9553;-82
2023/08/08 03:57:59;;;;;;;;;;;15.90;99.90;;;;;;7324241;19;9263;-82
2023/08/08 04:00:28;;;;;;;;;;;15.90;99.90;;;;;;7324197;19;9288;-82
2023/08/08 04:02:57;;;;;;;;;;;15.90;99.90;;;;;;7324029;19;9172;-82
2023/08/08 04:05:26;;;;;;;;;;;15.90;99.90;;;;;;7323979;19;9368;-82
2023/08/08 04:07:55;;;;;;;;;;;15.90;99.90;;;;;;7324096;19;9503;-82
2023/08/08 04:10:24;;;;;;;;;;;15.80;99.90;;;;;;7323511;19;9164;-81
2023/08/08 04:12:53;;;;;;;;;;;15.80;99.90;;;;;;7323710;19;9451;-81
2023/08/08 04:15:24;;;;;;;;;;;15.80;99.90;;;;;;7323823;19;10210;-82
2023/08/08 04:17:53;;;;;;;;;;;15.90;99.90;;;;;;7323922;19;9209;-82
2023/08/08 04:20:22;;;;;;;;;;;15.80;99.90;;;;;;7323756;19;9460;-82
2023/08/08 04:22:51;;;;;;;;;;;15.70;99.90;;;;;;7323520;19;9158;-81
2023/08/08 04:25:21;;;;;;;;;;;15.70;99.90;;;;;;7323757;19;9191;-82
2023/08/08 04:27:50;;;;;;;;;;;15.60;99.90;;;;;;7323482;19;9283;-82
2023/08/08 04:30:19;;;;;;;;;;;15.70;99.90;;;;;;7322884;19;9169;-82
2023/08/08 04:32:51;;;;;;;;;;;15.80;99.90;;;;;;7323243;19;9198;-82
2023/08/08 04:35:20;;;;;;;;;;;15.70;99.90;;;;;;7323178;19;9125;-82
2023/08/08 04:37:49;;;;;;;;;;;15.60;99.90;;;;;;7323173;19;9316;-82
2023/08/08 04:40:18;;;;;;;;;;;15.60;99.90;;;;;;7321485;19;9173;-82
2023/08/08 04:42:47;;;;;;;;;;;15.80;99.90;;;;;;7322808;19;9170;-82
2023/08/08 04:45:16;;;;;;;;;;;15.90;99.90;;;;;;7322887;19;9126;-82
2023/08/08 04:47:44;;;;;;;;;;;16.00;99.90;;;;;;7322740;19;9264;-82
2023/08/08 04:50:16;;;;;;;;;;;16.20;99.90;;;;;;7322471;19;9228;-82
2023/08/08 04:52:45;;;;;;;;;;;16.00;99.90;;;;;;7324791;19;9173;-82
2023/08/08 04:55:14;;;;;;;;;;;16.00;99.90;;;;;;7322650;19;9114;-82
2023/08/08 04:57:43;;;;;;;;;;;16.00;99.90;;;;;;7322704;19;9481;-82
2023/08/08 05:00:13;;;;;;;;;;;16.00;99.90;;;;;;7322402;19;9551;-82
2023/08/08 05:02:42;;;;;;;;;;;16.00;99.90;;;;;;7322913;19;9154;-82
2023/08/08 05:05:11;;;;;;;;;;;16.20;99.90;;;;;;7322568;19;9201;-82
2023/08/08 05:07:43;;;;;;;;;;;16.20;99.90;;;;;;7322253;19;9157;-82
2023/08/08 05:10:12;;;;;;;;;;;16.40;99.90;;;;;;7322263;19;9118;-82
2023/08/08 05:12:41;;;;;;;;;;;16.30;99.90;;;;;;7322037;19;9475;-82
2023/08/08 05:15:11;;;;;;;;;;;16.30;99.90;;;;;;7322508;19;9183;-82
2023/08/08 05:17:40;;;;;;;;;;;16.30;99.90;;;;;;7324099;19;9469;-82
2023/08/08 05:20:12;;;;;;;;;;;16.40;99.90;;;;;;7324193;19;9259;-82
2023/08/08 05:22:43;;;;;;;;;;;16.60;99.90;;;;;;7323056;19;9250;-82
2023/08/08 05:25:12;;;;;;;;;;;16.60;99.90;;;;;;7321933;19;9122;-82
2023/08/08 05:27:41;;;;;;;;;;;16.70;99.90;;;;;;7321830;19;9120;-82
2023/08/08 05:30:12;;;;;;;;;;;16.90;99.90;;;;;;7321972;19;9441;-82
2023/08/08 05:32:41;;;;;;;;;;;16.90;99.90;;;;;;7319524;19;9176;-82
2023/08/08 05:35:10;;;;;;;;;;;16.90;99.90;;;;;;7321559;19;9473;-83
2023/08/08 05:37:39;;;;;;;;;;;17.00;99.90;;;;;;7321488;19;9516;-82
2023/08/08 05:40:12;;;;;;;;;;;17.00;99.90;;;;;;7319901;19;9489;-82
2023/08/08 05:42:41;;;;;;;;;;;17.00;99.90;;;;;;7321532;19;9232;-82
2023/08/08 05:45:11;;;;;;;;;;;17.00;99.90;;;;;;7321443;19;9539;-82
2023/08/08 05:47:40;;;;;;;;;;;17.00;99.90;;;;;;7321349;19;9162;-82
2023/08/08 05:50:10;;;;;;;;;;;17.10;99.90;;;;;;7321143;19;9205;-82
2023/08/08 05:52:39;;;;;;;;;;;17.10;99.90;;;;;;7321630;19;10378;-82
2023/08/08 05:55:11;;;;;;;;;;;17.20;99.90;;;;;;7321006;19;9517;-82
2023/08/08 05:57:40;;;;;;;;;;;17.30;99.90;;;;;;7321201;19;9216;-82
2023/08/08 06:00:11;;;;;;;;;;;17.20;99.90;;;;;;7321089;19;9181;-82
2023/08/08 06:02:40;;;;;;;;;;;17.30;99.90;;;;;;7320593;19;8944;-82
2023/08/08 06:05:10;;;;;;;;;;;17.40;99.90;;;;;;7325199;19;9643;-82
2023/08/08 06:07:39;;;;;;;;;;;17.40;99.90;;;;;;7328025;19;9199;-82
2023/08/08 06:10:12;;;;;;;;;;;17.50;99.90;;;;;;7327778;19;9189;-82
2023/08/08 06:12:41;;;;;;;;;;;17.60;99.90;;;;;;7325724;19;9478;-81
2023/08/08 06:15:11;;;;;;;;;;;17.60;99.90;;;;;;7327544;19;9175;-82
2023/08/08 06:17:40;;;;;;;;;;;17.70;99.90;;;;;;7327935;19;9534;-82
2023/08/08 06:20:10;;;;;;;;;;;17.70;99.90;;;;;;7327387;19;9126;-82
2023/08/08 06:22:39;;;;;;;;;;;17.60;99.90;;;;;;7327415;19;9174;-82
2023/08/08 06:25:11;;;;;;;;;;;17.60;99.90;;;;;;7325936;19;10926;-82
2023/08/08 06:27:40;;;;;;;;;;;17.60;99.90;;;;;;7327388;19;9309;-81
2023/08/08 06:30:11;;;;;;;;;;;17.80;99.90;;;;;;7327136;19;9225;-81
2023/08/08 06:32:40;;;;;;;;;;;17.80;99.90;;;;;;7325201;19;9220;-82
2023/08/08 06:35:11;;;;;;;;;;;17.90;99.90;;;;;;7327122;19;9312;-82
2023/08/08 06:37:40;;;;;;;;;;;17.90;99.90;;;;;;7326953;19;9195;-82
2023/08/08 06:40:13;;;;;;;;;;;17.80;99.90;;;;;;7325087;19;9277;-83
2023/08/08 06:42:42;;;;;;;;;;;18.00;99.90;;;;;;7326740;19;9287;-82
2023/08/08 06:45:12;;;;;;;;;;;18.00;99.90;;;;;;7326661;19;9491;-82
2023/08/08 06:47:41;;;;;;;;;;;18.10;99.90;;;;;;7326656;19;9197;-82
2023/08/08 06:50:11;;;;;;;;;;;18.10;99.90;;;;;;7326609;19;9201;-82
2023/08/08 06:52:40;;;;;;;;;;;18.10;99.90;;;;;;7327191;19;9213;-81
2023/08/08 06:55:12;;;;;;;;;;;18.10;99.90;;;;;;7326435;19;9316;-82
2023/08/08 06:57:41;;;;;;;;;;;18.10;99.90;;;;;;7326404;19;9109;-82
2023/08/08 07:00:13;;;;;;;;;;;18.30;99.90;;;;;;7326372;19;9189;-82
2023/08/08 07:02:42;;;;;;;;;;;18.30;99.90;;;;;;7326067;19;9486;-82
2023/08/08 07:05:12;;;;;;;;;;;18.40;99.90;;;;;;7326186;19;9207;-82
2023/08/08 07:07:41;;;;;;;;;;;18.40;99.90;;;;;;7326166;19;9205;-82
2023/08/08 07:10:13;;;;;;;;;;;18.70;99.90;;;;;;7326326;19;9236;-82
2023/08/08 07:12:42;;;;;;;;;;;18.80;99.90;;;;;;7324231;19;9189;-81
2023/08/08 07:15:12;;;;;;;;;;;19.00;99.60;;;;;;7325798;19;9193;-82
2023/08/08 07:17:41;;;;;;;;;;;19.20;98.60;;;;;;7325779;19;9514;-82
2023/08/08 07:20:13;;;;;;;;;;;19.30;98.40;;;;;;7325582;19;9128;-81
2023/08/08 07:22:42;;;;;;;;;;;19.50;97.20;;;;;;7325717;19;9173;-82
2023/08/08 07:25:14;;;;;;;;;;;19.60;97.00;;;;;;7325425;19;9225;-82
2023/08/08 07:27:43;;;;;;;;;;;19.70;96.00;;;;;;7325495;19;9526;-81
2023/08/08 07:30:13;;;;;;;;;;;19.60;95.70;;;;;;7325097;19;9177;-82
2023/08/08 07:32:43;;;;;;;;;;;19.80;95.60;;;;;;7324324;19;9540;-82
2023/08/08 07:35:12;;;;;;;;;;;20.10;94.60;;;;;;7326385;19;9448;-83
2023/08/08 07:37:41;;;;;;;;;;;20.20;93.50;;;;;;7325761;19;9184;-82
2023/08/08 07:40:21;;;;;;;;;;;20.10;93.10;;;;;;7323714;19;9188;-82
2023/08/08 07:42:51;;;;;;;;;;;20.30;92.50;;;;;;7325317;19;9301;-82
2023/08/08 07:45:20;;;;;;;;;;;20.50;92.00;;;;;;7325199;19;9160;-82
2023/08/08 07:47:49;;;;;;;;;;;20.80;90.70;;;;;;7324844;19;9193;-83
2023/08/08 07:50:18;;;;;;;;;;;21.00;89.70;;;;;;7324956;19;9197;-82
2023/08/08 07:52:47;;;;;;;;;;;21.20;85.90;;;;;;7326677;19;9472;-81
2023/08/08 07:55:19;;;;;;;;;;;20.90;86.40;;;;;;7324835;19;9105;-82
2023/08/08 07:57:48;;;;;;;;;;;20.80;86.80;;;;;;7324688;19;9658;-82
2023/08/08 08:00:18;;;;;;;;;;;20.80;86.30;;;;;;7324602;19;11133;-82
2023/08/08 08:02:48;;;;;;;;;;;20.70;86.90;;;;;;7324408;19;9199;-82
2023/08/08 08:05:18;;;;;;;;;;;20.80;85.70;;;;;;7324686;19;8944;-82
2023/08/08 08:07:47;;;;;;;;;;;20.70;86.90;;;;;;7324188;19;9275;-82
2023/08/08 08:10:19;;;;;;;;;;;20.60;86.60;;;;;;7324588;19;10165;-82
2023/08/08 08:12:47;;;;;;;;;;;20.50;87.40;;;;;;7323118;19;9191;-83
2023/08/08 08:15:16;;;;;;;;;;;20.40;88.80;;;;;;7324647;19;9193;-82
2023/08/08 08:17:45;;;;;;;;;;;20.40;87.30;;;;;;7324085;19;9181;-82
2023/08/08 08:20:14;;;;;;;;;;;20.10;88.70;;;;;;7324123;19;9193;-82
2023/08/08 08:22:44;;;;;;;;;;;19.90;90.10;;;;;;7323927;19;9193;-82
2023/08/08 08:25:13;;;;;;;;;;;20.00;90.10;;;;;;7324033;19;9452;-82
2023/08/08 08:27:45;;;;;;;;;;;19.90;90.20;;;;;;7322470;19;10170;-82
2023/08/08 08:30:15;;;;;;;;;;;19.90;90.80;;;;;;7324059;19;9211;-83
2023/08/08 08:32:45;;;;;;;;;;;20.10;90.50;;;;;;7322307;19;9578;-83
2023/08/08 08:35:14;;;;;;;;;;;20.10;90.20;;;;;;7323394;19;10283;-82
2023/08/08 08:37:43;;;;;;;;;;;20.30;88.80;;;;;;7323267;19;10712;-82
2023/08/08 08:40:13;;;;;;;;;;;20.00;90.10;;;;;;7321853;19;9346;-82
2023/08/08 08:42:45;;;;;;;;;;;19.90;90.30;;;;;;7323214;19;9197;-82
2023/08/08 08:45:16;;;;;;;;;;;20.00;90.60;;;;;;7322941;19;9161;-82
2023/08/08 08:47:50;;;;;;;;;;;20.20;90.30;;;;;;7322874;19;10755;-82
2023/08/08 08:50:21;;;;;;;;;;;20.20;89.50;;;;;;7322870;19;9714;-83
2023/08/08 08:52:49;;;;;;;;;;;20.10;87.50;;;;;;7325340;19;9193;-83
2023/08/08 08:55:19;;;;;;;;;;;20.30;88.20;;;;;;7322706;19;9212;-82
2023/08/08 08:57:51;;;;;;;;;;;20.40;87.10;;;;;;7322826;19;9405;-82
2023/08/08 09:00:21;;;;;;;;;;;20.40;86.70;;;;;;7322704;19;9154;-83
2023/08/08 09:02:51;;;;;;;;;;;20.30;87.50;;;;;;7322685;19;8944;-83
2023/08/08 09:05:24;;;;;;;;;;;20.20;87.70;;;;;;7322764;19;9189;-82
2023/08/08 09:07:53;;;;;;;;;;;20.30;87.20;;;;;;7322625;19;10328;-83
2023/08/08 09:10:22;;;;;;;;;;;20.30;87.20;;;;;;7322639;19;9503;-82
2023/08/08 09:12:54;;;;;;;;;;;20.10;87.90;;;;;;7321502;19;10337;-83
2023/08/08 09:15:23;;;;;;;;;;;20.10;87.80;;;;;;7322526;19;9192;-82
2023/08/08 09:17:52;;;;;;;;;;;20.10;88.40;;;;;;7322619;19;11176;-82
2023/08/08 09:20:21;;;;;;;;;;;19.90;89.30;;;;;;7322339;19;9193;-82
2023/08/08 09:22:50;;;;;;;;;;;20.00;88.70;;;;;;7322084;19;9419;-83
2023/08/08 09:25:19;;;;;;;;;;;19.90;89.80;;;;;;7322261;19;9317;-83
2023/08/08 09:27:49;;;;;;;;;;;19.90;90.10;;;;;;7322038;19;9173;-83
2023/08/08 09:30:21;;;;;;;;;;;20.20;88.80;;;;;;7322169;19;9169;-82
2023/08/08 09:32:50;;;;;;;;;;;20.40;87.60;;;;;;7321394;19;9153;-83
2023/08/08 09:35:19;;;;;;;;;;;20.50;86.50;;;;;;7321916;19;9499;-83
2023/08/08 09:37:48;;;;;;;;;;;20.70;85.00;;;;;;7321796;19;9237;-82
2023/08/08 09:40:17;;;;;;;;;;;20.90;83.80;;;;;;7324457;19;9220;-83
2023/08/08 09:42:46;;;;;;;;;;;20.80;83.40;;;;;;7329002;19;9656;-83
2023/08/08 09:45:15;;;;;;;;;;;20.80;82.90;;;;;;7329065;19;9542;-83
2023/08/08 09:47:47;;;;;;;;;;;20.70;83.20;;;;;;7328740;19;9287;-83
2023/08/08 09:50:16;;;;;;;;;;;20.70;83.80;;;;;;7329263;19;9268;-82
2023/08/08 09:52:46;;;;;;;;;;;20.50;84.00;;;;;;7331465;19;10342;-83
2023/08/08 09:55:16;;;;;;;;;;;20.40;85.00;;;;;;7329032;19;9177;-82
2023/08/08 09:57:45;;;;;;;;;;;20.20;85.20;;;;;;7328469;19;8944;-82
2023/08/08 10:00:15;;;;;;;;;;;20.10;87.10;;;;;;7328356;19;9195;-82
2023/08/08 10:02:49;;;;;;;;;;;20.10;87.10;;;;;;7328107;19;9169;-83
2023/08/08 10:05:18;;;;;;;;;;;20.30;87.00;;;;;;7328394;19;10161;-83
2023/08/08 10:07:48;;;;;;;;;;;20.30;86.00;;;;;;7328072;19;9482;-83
2023/08/08 10:10:18;;;;;;;;;;;20.50;85.30;;;;;;7328214;19;9230;-83
2023/08/08 10:12:48;;;;;;;;;;;20.40;84.90;;;;;;7326918;19;9476;-83
2023/08/08 10:15:17;;;;;;;;;;;20.30;85.00;;;;;;7327892;19;9261;-82
2023/08/08 10:17:55;;;;;;;;;;;20.40;85.50;;;;;;7327930;19;9586;-82
2023/08/08 10:20:24;;;;;;;;;;;20.30;85.90;;;;;;7327737;19;9480;-83
2023/08/08 10:22:56;;;;;;;;;;;20.20;86.70;;;;;;7327620;19;9189;-83
2023/08/08 10:25:33;;;;;;;;;;;20.30;86.10;;;;;;7327465;19;9189;-82
2023/08/08 10:28:07;;;;;;;;;;;20.40;85.90;;;;;;7327510;19;9219;-83
2023/08/08 10:30:57;;;;;;;;;;;20.40;86.10;;;;;;7327528;19;9158;-82
2023/08/08 10:33:41;;;;;;;;;;;20.30;86.40;;;;;;7325740;19;9208;-84
2023/08/08 10:36:13;;;;;;;;;;;20.00;89.50;;;;;;7327303;19;9246;-85
2023/08/08 10:38:46;;;;;;;;;;;19.80;90.90;;;;;;7326820;19;9263;-84
2023/08/08 10:41:17;;;;;;;;;;;19.30;92.30;;;;;;7325059;19;9188;-84
2023/08/08 10:43:54;;;;;;;;;;;19.20;93.70;;;;;;7326922;19;9282;-84
2023/08/08 10:46:27;;;;;;;;;;;19.00;94.40;;;;;;7328285;19;9667;-83
2023/08/08 10:49:01;;;;;;;;;;;19.20;95.00;;;;;;7327706;19;9163;-83
2023/08/08 10:51:37;;;;;;;;;;;19.00;96.30;;;;;;7328249;19;9193;-83
2023/08/08 10:54:08;;;;;;;;;;;19.00;96.30;;;;;;7325094;19;9510;-83
2023/08/08 10:56:38;;;;;;;;;;;19.00;97.10;;;;;;7327140;19;9320;-83
2023/08/08 10:59:18;;;;;;;;;;;18.90;97.80;;;;;;7326558;19;9334;-84
2023/08/08 11:01:56;;;;;;;;;;;19.10;97.70;;;;;;7326277;19;9177;-83
2023/08/08 11:04:29;;;;;;;;;;;19.20;97.70;;;;;;7326420;19;10196;-82
2023/08/08 11:06:59;;;;;;;;;;;19.60;96.30;;;;;;7326086;19;9537;-84
2023/08/08 11:09:29;;;;;;;;;;;19.80;95.70;;;;;;7326501;19;9282;-83
2023/08/08 11:11:59;;;;;;;;;;;19.90;95.20;;;;;;7326073;19;11231;-83
2023/08/08 11:14:28;;;;;;;;;;;20.00;94.30;;;;;;7323740;19;9187;-83
2023/08/08 11:16:57;;;;;;;;;;;20.10;93.20;;;;;;7326291;19;9528;-83
2023/08/08 11:19:30;;;;;;;;;;;20.10;93.00;;;;;;7325916;19;9341;-82
2023/08/08 11:21:59;;;;;;;;;;;20.10;93.90;;;;;;7326060;19;9263;-83
2023/08/08 11:24:28;;;;;;;;;;;20.00;92.40;;;;;;7325506;19;8999;-83
2023/08/08 11:27:01;;;;;;;;;;;19.90;93.10;;;;;;7326053;19;9180;-83
2023/08/08 11:29:31;;;;;;;;;;;19.80;93.70;;;;;;7325789;19;9180;-83
2023/08/08 11:32:02;;;;;;;;;;;20.00;91.60;;;;;;7325553;19;9207;-83
2023/08/08 11:34:37;;;;;;;;;;;20.30;91.20;;;;;;7323439;19;9196;-84
2023/08/08 11:37:07;;;;;;;;;;;20.30;90.80;;;;;;7325318;19;9171;-82
2023/08/08 11:39:39;;;;;;;;;;;20.40;90.50;;;;;;7324190;19;9231;-82
2023/08/08 11:42:09;;;;;;;;;;;20.60;90.60;;;;;;7325129;19;9214;-82
2023/08/08 11:44:39;;;;;;;;;;;20.70;86.60;;;;;;7325169;19;9205;-83
2023/08/08 11:47:09;;;;;;;;;;;20.70;86.20;;;;;;7325117;19;10687;-83
2023/08/08 11:49:45;;;;;;;;;;;20.70;84.10;;;;;;7324929;19;9790;-83
2023/08/08 11:52:15;;;;;;;;;;;20.70;83.60;;;;;;7328113;19;9189;-84
2023/08/08 11:54:44;;;;;;;;;;;20.90;84.70;;;;;;7322750;19;9203;-82
2023/08/08 11:57:13;;;;;;;;;;;21.10;84.30;;;;;;7324799;19;9441;-81
2023/08/08 11:59:43;;;;;;;;;;;21.10;83.10;;;;;;7324383;19;9530;-82
2023/08/08 12:02:12;;;;;;;;;;;21.00;81.60;;;;;;7322327;19;9268;-81
2023/08/08 12:04:41;;;;;;;;;;;20.90;80.60;;;;;;7325002;19;9209;-82
2023/08/08 12:07:13;;;;;;;;;;;20.80;80.10;;;;;;7324837;19;9185;-81
2023/08/08 12:09:43;;;;;;;;;;;20.60;81.30;;;;;;7324262;19;10743;-82
2023/08/08 12:12:11;;;;;;;;;;;20.40;81.50;;;;;;7324072;19;9213;-82
2023/08/08 12:14:41;;;;;;;;;;;20.40;82.40;;;;;;7322761;19;9219;-82
2023/08/08 12:17:12;;;;;;;;;;;20.30;81.90;;;;;;7323987;19;8948;-81
2023/08/08 12:19:49;;;;;;;;;;;20.30;82.00;;;;;;7323883;19;9196;-81
2023/08/08 12:22:20;;;;;;;;;;;20.10;81.50;;;;;;7323768;19;9197;-81
2023/08/08 12:24:50;;;;;;;;;;;20.00;82.00;;;;;;7323607;19;11259;-82
2023/08/08 12:27:19;;;;;;;;;;;20.00;81.90;;;;;;7323800;19;11178;-82
2023/08/08 12:29:48;;;;;;;;;;;20.00;80.50;;;;;;7323358;19;9189;-82
2023/08/08 12:32:17;;;;;;;;;;;20.00;82.00;;;;;;7323347;19;9161;-81
2023/08/08 12:34:46;;;;;;;;;;;20.00;81.90;;;;;;7321700;19;9192;-82
2023/08/08 12:37:16;;;;;;;;;;;20.10;82.00;;;;;;7323341;19;9197;-82
2023/08/08 12:39:47;;;;;;;;;;;20.30;81.90;;;;;;7322117;19;9219;-82
2023/08/08 12:42:16;;;;;;;;;;;20.20;81.20;;;;;;7323522;19;9432;-82
2023/08/08 12:44:46;;;;;;;;;;;20.40;81.80;;;;;;7322878;19;9189;-81
2023/08/08 12:47:15;;;;;;;;;;;20.50;79.50;;;;;;7323249;19;9185;-82
2023/08/08 12:49:44;;;;;;;;;;;20.40;77.20;;;;;;7323425;19;9428;-81
2023/08/08 12:52:13;;;;;;;;;;;20.30;79.60;;;;;;7326371;19;9188;-81
2023/08/08 12:54:42;;;;;;;;;;;20.30;79.80;;;;;;7321318;19;9364;-82
2023/08/08 12:57:13;;;;;;;;;;;19.90;79.60;;;;;;7322792;19;9336;-82
2023/08/08 12:59:42;;;;;;;;;;;19.90;82.40;;;;;;7322583;19;9159;-82
2023/08/08 13:02:11;;;;;;;;;;;19.80;84.60;;;;;;7322482;19;9123;-82
2023/08/08 13:04:40;;;;;;;;;;;20.00;83.60;;;;;;7322510;19;9331;-82
2023/08/08 13:07:09;;;;;;;;;;;20.20;82.30;;;;;;7322667;19;9468;-81
2023/08/08 13:09:38;;;;;;;;;;;20.30;82.40;;;;;;7322516;19;9205;-82
2023/08/08 13:12:08;;;;;;;;;;;20.40;81.80;;;;;;7322266;19;9274;-82
2023/08/08 13:14:40;;;;;;;;;;;20.40;81.60;;;;;;7326368;19;9181;-81
2023/08/08 13:17:09;;;;;;;;;;;20.40;81.20;;;;;;7330037;19;9317;-82
2023/08/08 13:19:38;;;;;;;;;;;20.50;80.50;;;;;;7329666;19;9282;-81
2023/08/08 13:22:07;;;;;;;;;;;20.60;80.10;;;;;;7329299;19;9529;-82
2023/08/08 13:24:36;;;;;;;;;;;20.20;77.80;;;;;;7329366;19;9188;-82
2023/08/08 13:27:05;;;;;;;;;;;20.20;80.20;;;;;;7329450;19;9220;-83
2023/08/08 13:29:34;;;;;;;;;;;20.20;81.10;;;;;;7329371;19;9197;-82
2023/08/08 13:32:06;;;;;;;;;;;20.20;81.00;;;;;;7329128;19;9128;-82
2023/08/08 13:34:35;;;;;;;;;;;20.20;81.40;;;;;;7327078;19;9201;-81
2023/08/08 13:37:05;;;;;;;;;;;20.30;81.90;;;;;;7329047;19;9224;-82
2023/08/08 13:39:34;;;;;;;;;;;20.20;81.20;;;;;;7327586;19;8975;-82
2023/08/08 13:42:03;;;;;;;;;;;20.20;80.80;;;;;;7329168;19;9083;-81
2023/08/08 13:44:32;;;;;;;;;;;20.30;80.40;;;;;;7329142;19;9175;-82
2023/08/08 13:47:01;;;;;;;;;;;20.40;80.50;;;;;;7328832;19;9458;-82
2023/08/08 13:49:32;;;;;;;;;;;20.50;80.20;;;;;;7328790;19;9211;-82
2023/08/08 13:52:01;;;;;;;;;;;20.40;80.30;;;;;;7332070;19;9175;-82
2023/08/08 13:54:30;;;;;;;;;;;20.40;79.70;;;;;;7327358;19;9193;-81
2023/08/08 13:56:59;;;;;;;;;;;20.20;79.80;;;;;;7328610;19;9465;-82
2023/08/08 13:59:28;;;;;;;;;;;20.10;80.20;;;;;;7328319;19;9183;-82
2023/08/08 14:01:57;;;;;;;;;;;20.20;81.00;;;;;;7328420;19;9129;-82
2023/08/08 14:04:26;;;;;;;;;;;20.10;79.40;;;;;;7328197;19;9459;-82
2023/08/08 14:06:58;;;;;;;;;;;20.20;80.40;;;;;;7328239;19;9342;-82
2023/08/08 14:09:27;;;;;;;;;;;20.20;79.40;;;;;;7328198;19;9221;-82
2023/08/08 14:11:56;;;;;;;;;;;20.20;79.10;;;;;;7328119;19;9177;-83
2023/08/08 14:14:25;;;;;;;;;;;20.40;78.10;;;;;;7326497;19;9561;-82
2023/08/08 14:16:54;;;;;;;;;;;20.60;78.90;;;;;;7328240;19;9189;-82
2023/08/08 14:19:23;;;;;;;;;;;20.80;77.50;;;;;;7328641;19;8944;-83
2023/08/08 14:21:52;;;;;;;;;;;21.00;76.30;;;;;;7327894;19;9304;-82
2023/08/08 14:24:23;;;;;;;;;;;21.10;75.50;;;;;;7326987;19;9128;-81
2023/08/08 14:26:52;;;;;;;;;;;21.10;73.80;;;;;;7326540;19;9206;-82
2023/08/08 14:29:21;;;;;;;;;;;21.10;76.00;;;;;;7327474;19;9662;-82
2023/08/08 14:31:50;;;;;;;;;;;20.80;74.40;;;;;;7327245;19;9185;-83
2023/08/08 14:34:19;;;;;;;;;;;20.40;75.10;;;;;;7326238;19;9248;-82
2023/08/08 14:36:48;;;;;;;;;;;20.10;75.90;;;;;;7327061;19;9224;-82
2023/08/08 14:39:18;;;;;;;;;;;19.70;77.40;;;;;;7326376;19;9185;-82
2023/08/08 14:41:50;;;;;;;;;;;19.80;78.00;;;;;;7324465;19;9471;-82
2023/08/08 14:44:20;;;;;;;;;;;19.90;79.40;;;;;;7326855;19;9205;-82